createdAt,value
2018-12-03T00:01:30.518Z,1.40
2018-12-03T00:04:01.678Z,1.10
2018-12-03T00:06:29.994Z,1.00
2018-12-03T00:08:58.293Z,1.22
2018-12-03T00:11:26.607Z,1.00
2018-12-03T00:13:54.950Z,1.05
2018-12-03T00:16:23.528Z,1.10
2018-12-03T00:18:51.977Z,1.10
2018-12-03T00:21:20.303Z,1.00
2018-12-03T00:23:48.598Z,0.93
2018-12-03T00:26:16.907Z,1.10
2018-12-03T00:28:45.210Z,0.90
2018-12-03T00:31:13.523Z,0.93
2018-12-03T00:33:41.807Z,1.00
2018-12-03T00:36:10.123Z,0.90
2018-12-03T00:38:38.461Z,0.68
2018-12-03T00:41:06.895Z,1.10
2018-12-03T00:43:35.231Z,0.80
2018-12-03T00:46:03.578Z,0.68
2018-12-03T00:48:31.920Z,0.80
2018-12-03T00:51:00.225Z,0.60
2018-12-03T00:53:28.529Z,0.60
2018-12-03T00:55:56.870Z,0.80
2018-12-03T00:58:25.181Z,0.75
2018-12-03T01:00:53.483Z,0.75
2018-12-03T01:03:21.802Z,0.80
2018-12-03T01:05:50.106Z,0.80
2018-12-03T01:08:18.421Z,0.98
2018-12-03T01:10:46.731Z,0.60
2018-12-03T01:13:15.050Z,0.70
2018-12-03T01:15:43.459Z,0.78
2018-12-03T01:18:11.787Z,0.60
2018-12-03T01:20:40.192Z,0.60
2018-12-03T01:23:08.505Z,0.70
2018-12-03T01:25:36.838Z,0.70
2018-12-03T01:28:05.257Z,0.98
2018-12-03T01:30:33.575Z,0.88
2018-12-03T01:33:01.890Z,0.68
2018-12-03T01:35:30.212Z,0.70
2018-12-03T01:37:58.549Z,0.80
2018-12-03T01:40:26.859Z,1.00
2018-12-03T01:42:55.175Z,0.93
2018-12-03T01:45:23.493Z,0.78
2018-12-03T01:47:51.810Z,1.00
2018-12-03T01:50:20.114Z,0.68
2018-12-03T01:52:48.455Z,0.72
2018-12-03T01:55:16.768Z,0.90
2018-12-03T01:57:45.103Z,0.90
2018-12-03T02:00:16.774Z,0.70
2018-12-03T02:02:45.094Z,1.12
2018-12-03T02:05:13.924Z,0.98
2018-12-03T02:07:42.233Z,1.20
2018-12-03T02:10:11.657Z,1.00
2018-12-03T02:12:40.033Z,1.00
2018-12-03T02:15:10.502Z,1.10
2018-12-03T02:17:38.830Z,1.10
2018-12-03T02:20:09.319Z,0.60
2018-12-03T02:22:37.631Z,0.90
2018-12-03T02:25:06.738Z,1.20
2018-12-03T02:27:35.163Z,0.72
2018-12-03T02:30:03.922Z,1.45
2018-12-03T02:32:32.239Z,1.12
2018-12-03T02:35:00.539Z,0.82
2018-12-03T02:37:28.846Z,0.80
2018-12-03T02:39:57.157Z,1.20
2018-12-03T02:42:25.487Z,1.12
2018-12-03T02:44:53.791Z,1.22
2018-12-03T02:47:22.116Z,1.02
2018-12-03T02:49:50.410Z,0.90
2018-12-03T02:52:18.739Z,0.80
2018-12-03T02:54:47.036Z,0.60
2018-12-03T02:57:15.354Z,0.62
2018-12-03T02:59:43.679Z,0.95
2018-12-03T03:02:12.019Z,0.80
2018-12-03T03:04:40.344Z,0.88
2018-12-03T03:07:08.662Z,0.80
2018-12-03T03:09:36.968Z,0.80
2018-12-03T03:12:05.573Z,0.70
2018-12-03T03:14:33.884Z,0.90
2018-12-03T03:17:02.222Z,0.70
2018-12-03T03:19:30.535Z,0.40
2018-12-03T03:21:58.839Z,0.50
2018-12-03T03:24:27.166Z,0.50
2018-12-03T03:26:55.470Z,0.50
2018-12-03T03:29:23.790Z,0.55
2018-12-03T03:31:52.101Z,0.55
2018-12-03T03:34:20.427Z,0.42
2018-12-03T03:36:48.747Z,0.47
2018-12-03T03:39:17.098Z,0.50
2018-12-03T03:41:45.393Z,0.65
2018-12-03T03:44:13.722Z,0.57
2018-12-03T03:46:42.022Z,0.50
2018-12-03T03:49:10.346Z,0.70
2018-12-03T03:51:38.723Z,0.60
2018-12-03T03:54:07.117Z,0.50
2018-12-03T03:56:35.412Z,0.68
2018-12-03T03:59:04.014Z,1.00
2018-12-03T04:01:32.411Z,0.68
2018-12-03T04:04:00.730Z,0.98
2018-12-03T04:06:29.037Z,1.20
2018-12-03T04:08:57.367Z,0.98
2018-12-03T04:11:25.671Z,0.98
2018-12-03T04:13:54.096Z,0.98
2018-12-03T04:16:22.406Z,0.93
2018-12-03T04:18:50.724Z,0.82
2018-12-03T04:21:19.026Z,0.80
2018-12-03T04:23:47.361Z,1.50
2018-12-03T04:26:15.688Z,1.12
2018-12-03T04:28:44.009Z,1.07
2018-12-03T04:31:12.303Z,1.05
2018-12-03T04:33:40.654Z,1.20
2018-12-03T04:36:08.971Z,1.10
2018-12-03T04:38:37.302Z,0.93
2018-12-03T04:41:05.867Z,0.98
2018-12-03T04:43:34.199Z,0.93
2018-12-03T04:46:02.535Z,1.22
2018-12-03T04:48:30.906Z,1.30
2018-12-03T04:50:59.213Z,1.02
2018-12-03T04:53:27.526Z,1.10
2018-12-03T04:55:55.819Z,0.65
2018-12-03T04:58:24.126Z,0.60
2018-12-03T05:00:52.439Z,0.82
2018-12-03T05:03:20.867Z,0.75
2018-12-03T05:05:49.194Z,0.70
2018-12-03T05:08:17.502Z,1.02
2018-12-03T05:10:45.801Z,0.62
2018-12-03T05:13:14.114Z,0.60
2018-12-03T05:15:42.419Z,0.70
2018-12-03T05:18:10.746Z,0.50
2018-12-03T05:20:39.047Z,2.17
2018-12-03T05:23:07.434Z,0.80
2018-12-03T05:25:35.777Z,0.65
2018-12-03T05:28:04.126Z,1.00
2018-12-03T05:30:32.422Z,0.78
2018-12-03T05:33:00.734Z,0.80
2018-12-03T05:35:29.815Z,0.78
2018-12-03T05:37:58.281Z,0.72
2018-12-03T05:40:28.134Z,0.80
2018-12-03T05:42:56.418Z,1.00
2018-12-03T05:45:24.726Z,0.72
2018-12-03T05:47:53.013Z,0.50
2018-12-03T05:50:21.356Z,0.65
2018-12-03T05:52:49.730Z,1.75
2018-12-03T05:55:18.058Z,1.20
2018-12-03T05:57:46.462Z,0.70
2018-12-03T06:00:18.987Z,1.35
2018-12-03T06:02:47.292Z,1.47
2018-12-03T06:05:15.914Z,1.27
2018-12-03T06:07:44.256Z,1.55
2018-12-03T06:10:16.718Z,1.17
2018-12-03T06:12:45.013Z,1.30
2018-12-03T06:15:14.426Z,0.80
2018-12-03T06:17:42.727Z,1.20
2018-12-03T06:20:13.154Z,0.80
2018-12-03T06:22:41.454Z,3.22
2018-12-03T06:25:11.985Z,5.42
2018-12-03T06:27:40.287Z,2.35
2018-12-03T06:30:12.666Z,4.10
2018-12-03T06:32:40.950Z,3.00
2018-12-03T06:35:10.691Z,1.50
2018-12-03T06:37:39.003Z,1.10
2018-12-03T06:40:17.630Z,0.80
2018-12-03T06:42:45.930Z,0.90
2018-12-03T06:45:16.544Z,0.70
2018-12-03T06:47:47.058Z,0.90
2018-12-03T06:50:15.371Z,1.00
2018-12-03T06:52:43.655Z,1.12
2018-12-03T06:55:11.967Z,0.78
2018-12-03T06:57:40.259Z,0.68
2018-12-03T07:00:15.330Z,0.70
2018-12-03T07:02:43.946Z,1.10
2018-12-03T07:05:12.314Z,0.98
2018-12-03T07:07:41.359Z,1.02
2018-12-03T07:10:13.035Z,1.45
2018-12-03T07:12:41.462Z,1.35
2018-12-03T07:15:11.053Z,1.60
2018-12-03T07:17:39.351Z,1.00
2018-12-03T07:20:10.291Z,1.25
2018-12-03T07:22:38.769Z,0.80
2018-12-03T07:25:08.422Z,1.00
2018-12-03T07:27:36.715Z,1.00
2018-12-03T07:30:13.427Z,1.17
2018-12-03T07:32:41.875Z,1.10
2018-12-03T07:35:10.191Z,1.00
2018-12-03T07:37:38.530Z,0.98
2018-12-03T07:40:08.699Z,1.20
2018-12-03T07:42:37.150Z,1.60
2018-12-03T07:45:23.731Z,1.10
2018-12-03T07:47:52.125Z,1.40
2018-12-03T07:50:22.445Z,1.60
2018-12-03T07:52:50.757Z,1.17
2018-12-03T07:55:22.192Z,1.15
2018-12-03T07:57:53.441Z,1.12
2018-12-03T08:00:23.678Z,1.72
2018-12-03T08:02:51.986Z,1.20
2018-12-03T08:05:20.306Z,2.65
2018-12-03T08:07:48.641Z,1.47
2018-12-03T08:10:17.766Z,1.32
2018-12-03T08:12:47.056Z,1.25
2018-12-03T08:15:16.595Z,2.47
2018-12-03T08:17:49.062Z,2.25
2018-12-03T08:20:20.766Z,2.10
2018-12-03T08:22:54.042Z,1.45
2018-12-03T08:25:23.370Z,1.00
2018-12-03T08:27:52.129Z,0.82
2018-12-03T08:30:20.442Z,1.17
2018-12-03T08:32:48.735Z,0.70
2018-12-03T08:35:17.965Z,0.82
2018-12-03T08:37:46.425Z,1.15
2018-12-03T08:40:17.826Z,1.45
2018-12-03T08:42:52.457Z,1.57
2018-12-03T08:45:21.753Z,3.00
2018-12-03T08:47:50.554Z,1.70
2018-12-03T08:50:26.926Z,0.85
2018-12-03T08:52:56.251Z,1.25
2018-12-03T08:55:24.565Z,0.70
2018-12-03T08:57:52.898Z,0.75
2018-12-03T09:00:25.582Z,0.93
2018-12-03T09:03:02.494Z,0.82
2018-12-03T09:05:34.031Z,1.70
2018-12-03T09:08:02.329Z,1.10
2018-12-03T09:10:30.662Z,1.15
2018-12-03T09:13:15.466Z,1.00
2018-12-03T09:15:44.569Z,1.10
2018-12-03T09:18:12.874Z,1.30
2018-12-03T09:20:41.215Z,0.90
2018-12-03T09:23:09.518Z,0.93
2018-12-03T09:25:37.835Z,0.70
2018-12-03T09:28:06.277Z,0.80
2018-12-03T09:30:34.602Z,0.80
2018-12-03T09:33:02.926Z,0.70
2018-12-03T09:35:31.238Z,0.60
2018-12-03T09:37:59.558Z,0.80
2018-12-03T09:40:29.259Z,0.90
2018-12-03T09:42:57.573Z,0.70
2018-12-03T09:45:25.946Z,0.57
2018-12-03T09:47:54.531Z,0.60
2018-12-03T09:50:24.957Z,0.90
2018-12-03T09:52:53.716Z,0.65
2018-12-03T09:55:26.213Z,0.70
2018-12-03T09:57:59.083Z,0.65
2018-12-03T10:00:27.501Z,0.62
2018-12-03T10:02:56.913Z,0.62
2018-12-03T10:05:27.352Z,0.85
2018-12-03T10:07:55.655Z,0.70
2018-12-03T10:10:23.978Z,0.70
2018-12-03T10:12:52.375Z,0.70
2018-12-03T10:15:27.463Z,0.72
2018-12-03T10:17:57.286Z,0.70
2018-12-03T10:20:25.685Z,0.88
2018-12-03T10:22:53.987Z,0.78
2018-12-03T10:25:22.342Z,0.60
2018-12-03T10:27:50.663Z,0.70
2018-12-03T10:30:20.896Z,0.57
2018-12-03T10:32:50.923Z,0.60
2018-12-03T10:35:19.485Z,0.50
2018-12-03T10:37:48.332Z,0.62
2018-12-03T10:40:18.242Z,0.62
2018-12-03T10:42:47.584Z,0.70
2018-12-03T10:45:18.711Z,0.60
2018-12-03T10:47:47.035Z,0.50
2018-12-03T10:50:22.212Z,0.40
2018-12-03T10:52:47.291Z,0.50
2018-12-03T10:55:15.619Z,0.62
2018-12-03T10:57:45.096Z,0.53
2018-12-03T11:00:20.706Z,0.50
2018-12-03T11:03:53.346Z,0.60
2018-12-03T11:06:22.810Z,0.55
2018-12-03T11:08:51.116Z,0.70
2018-12-03T11:11:19.760Z,0.60
2018-12-03T11:13:48.187Z,0.50
2018-12-03T11:16:23.407Z,0.65
2018-12-03T11:18:53.522Z,0.98
2018-12-03T11:21:21.897Z,1.00
2018-12-03T11:23:50.191Z,0.78
2018-12-03T11:26:18.519Z,0.50
2018-12-03T11:28:52.336Z,0.50
2018-12-03T11:31:27.519Z,0.53
2018-12-03T11:33:55.902Z,0.60
2018-12-03T11:36:27.116Z,0.60
2018-12-03T11:39:12.301Z,0.50
2018-12-03T11:41:40.657Z,0.60
2018-12-03T11:44:08.980Z,0.85
2018-12-03T11:46:37.306Z,0.70
2018-12-03T11:49:06.667Z,0.65
2018-12-03T11:51:35.190Z,0.72
2018-12-03T11:54:03.672Z,0.57
2018-12-03T11:56:31.998Z,0.70
2018-12-03T11:59:00.300Z,0.78
2018-12-03T12:01:28.679Z,0.50
2018-12-03T12:03:56.984Z,0.60
2018-12-03T12:06:25.311Z,0.72
2018-12-03T12:08:53.622Z,0.60
2018-12-03T12:11:21.952Z,0.70
2018-12-03T12:13:50.255Z,0.70
2018-12-03T12:16:18.571Z,0.55
2018-12-03T12:18:46.886Z,0.80
2018-12-03T12:21:15.214Z,0.80
2018-12-03T12:23:43.516Z,0.50
2018-12-03T12:26:11.819Z,0.60
2018-12-03T12:28:40.143Z,0.60
2018-12-03T12:31:08.446Z,0.70
2018-12-03T12:33:36.768Z,0.70
2018-12-03T12:36:05.202Z,0.80
2018-12-03T12:38:33.547Z,0.80
2018-12-03T12:41:01.858Z,0.78
2018-12-03T12:43:30.183Z,0.70
2018-12-03T12:46:02.778Z,0.60
2018-12-03T12:48:31.104Z,0.72
2018-12-03T12:50:59.415Z,0.75
2018-12-03T12:53:27.783Z,0.78
2018-12-03T12:55:56.090Z,0.68
2018-12-03T12:58:24.420Z,0.65
2018-12-03T13:00:52.740Z,1.05
2018-12-03T13:03:21.055Z,0.80
2018-12-03T13:05:49.376Z,0.80
2018-12-03T13:08:17.711Z,0.90
2018-12-03T13:10:46.011Z,0.70
2018-12-03T13:13:14.327Z,0.60
2018-12-03T13:15:42.635Z,0.72
2018-12-03T13:18:10.951Z,0.70
2018-12-03T13:20:39.273Z,1.57
2018-12-03T13:23:07.647Z,1.80
2018-12-03T13:25:36.024Z,1.45
2018-12-03T13:28:04.382Z,1.87
2018-12-03T13:30:32.695Z,1.65
2018-12-03T13:33:01.015Z,0.82
2018-12-03T13:35:29.356Z,1.30
2018-12-03T13:37:57.703Z,1.15
2018-12-03T13:40:26.001Z,1.00
2018-12-03T13:42:54.327Z,0.98
2018-12-03T13:45:24.455Z,1.30
2018-12-03T13:47:54.003Z,1.60
2018-12-03T13:50:22.302Z,0.85
2018-12-03T13:52:50.634Z,0.72
2018-12-03T13:55:19.958Z,2.85
2018-12-03T13:57:48.477Z,1.02
2018-12-03T14:00:21.210Z,1.45
2018-12-03T14:03:07.502Z,1.40
2018-12-03T14:05:43.526Z,1.20
2018-12-03T14:09:20.275Z,1.07
2018-12-03T14:12:01.220Z,1.20
2018-12-03T14:16:43.580Z,1.42
2018-12-03T14:19:15.558Z,1.52
2018-12-03T14:21:50.903Z,1.85
2018-12-03T14:24:20.445Z,2.10
2018-12-03T14:26:48.746Z,1.45
2018-12-03T14:29:17.054Z,1.62
2018-12-03T14:31:45.434Z,1.75
2018-12-03T14:34:18.709Z,1.70
2018-12-03T14:36:47.090Z,1.80
2018-12-03T14:39:15.458Z,2.08
2018-12-03T14:41:43.753Z,2.00
2018-12-03T14:44:12.130Z,2.22
2018-12-03T14:46:40.414Z,2.58
2018-12-03T14:49:08.726Z,7.42
2018-12-03T14:51:37.015Z,3.70
2018-12-03T14:54:05.327Z,3.20
2018-12-03T14:56:33.618Z,2.83
2018-12-03T14:59:01.923Z,4.03
2018-12-03T15:01:30.224Z,3.37
2018-12-03T15:03:58.530Z,3.42
2018-12-03T15:06:26.822Z,3.52
2018-12-03T15:08:55.209Z,3.10
2018-12-03T15:11:24.149Z,3.30
2018-12-03T15:13:52.458Z,3.08
2018-12-03T15:16:20.746Z,2.87
2018-12-03T15:18:49.071Z,2.67
2018-12-03T15:21:17.369Z,1.98
2018-12-03T15:23:45.695Z,2.42
2018-12-03T15:26:13.991Z,1.52
2018-12-03T15:28:42.311Z,2.22
2018-12-03T15:31:10.598Z,1.80
2018-12-03T15:33:38.906Z,2.52
2018-12-03T15:36:07.305Z,2.00
2018-12-03T15:38:35.630Z,1.77
2018-12-03T15:41:03.930Z,2.30
2018-12-03T15:43:32.555Z,2.60
2018-12-03T15:46:00.846Z,2.37
2018-12-03T15:48:29.164Z,2.90
2018-12-03T15:50:57.459Z,3.00
2018-12-03T15:53:25.785Z,1.40
2018-12-03T15:55:54.083Z,1.60
2018-12-03T15:58:22.399Z,3.47
2018-12-03T16:00:50.698Z,2.08
2018-12-03T16:03:19.027Z,3.10
2018-12-03T16:05:47.344Z,3.50
2018-12-03T16:08:15.659Z,4.53
2018-12-03T16:10:43.954Z,3.42
2018-12-03T16:13:12.277Z,3.10
2018-12-03T16:15:40.569Z,3.00
2018-12-03T16:18:08.902Z,2.55
2018-12-03T16:20:37.199Z,1.85
2018-12-03T16:23:05.494Z,2.30
2018-12-03T16:25:33.811Z,1.98
2018-12-03T16:28:02.097Z,2.65
2018-12-03T16:30:30.426Z,2.08
2018-12-03T16:32:58.743Z,2.10
2018-12-03T16:35:27.562Z,1.10
2018-12-03T16:37:55.885Z,1.55
2018-12-03T16:40:24.214Z,3.52
2018-12-03T16:42:52.521Z,3.40
2018-12-03T16:45:20.850Z,5.03
2018-12-03T16:47:49.147Z,3.52
2018-12-03T16:50:17.471Z,3.55
2018-12-03T16:52:45.770Z,2.90
2018-12-03T16:55:14.131Z,1.75
2018-12-03T16:57:42.435Z,1.35
2018-12-03T17:00:12.790Z,2.17
2018-12-03T17:02:41.095Z,2.37
2018-12-03T17:05:09.446Z,1.62
2018-12-03T17:07:37.762Z,1.75
2018-12-03T17:10:10.065Z,1.87
2018-12-03T17:12:38.380Z,1.72
2018-12-03T17:15:06.910Z,1.20
2018-12-03T17:17:35.254Z,1.55
2018-12-03T17:20:05.423Z,1.90
2018-12-03T17:22:39.438Z,1.80
2018-12-03T17:25:14.619Z,3.80
2018-12-03T17:27:42.912Z,2.12
2018-12-03T17:30:11.218Z,2.62
2018-12-03T17:32:39.506Z,2.62
2018-12-03T17:35:07.815Z,2.75
2018-12-03T17:37:36.214Z,3.67
2018-12-03T17:40:07.515Z,2.70
2018-12-03T17:42:35.799Z,2.58
2018-12-03T17:45:04.358Z,2.35
2018-12-03T17:47:32.730Z,2.70
2018-12-03T17:50:01.067Z,2.47
2018-12-03T17:52:29.358Z,3.72
2018-12-03T17:54:57.676Z,2.83
2018-12-03T17:57:25.977Z,3.40
2018-12-03T17:59:54.293Z,3.90
2018-12-03T18:02:22.695Z,3.67
2018-12-03T18:04:50.998Z,4.05
2018-12-03T18:07:19.770Z,3.85
2018-12-03T18:09:49.158Z,3.98
2018-12-03T18:12:17.489Z,5.05
2018-12-03T18:14:45.898Z,3.45
2018-12-03T18:17:14.203Z,4.22
2018-12-03T18:19:42.651Z,4.00
2018-12-03T18:22:11.053Z,4.12
2018-12-03T18:25:06.645Z,4.12
2018-12-03T18:27:34.170Z,3.92
2018-12-03T18:30:01.759Z,3.65
2018-12-03T18:32:29.303Z,3.05
2018-12-03T18:34:56.959Z,2.95
2018-12-03T18:37:24.481Z,3.17
2018-12-03T18:39:52.124Z,2.65
2018-12-03T18:42:19.661Z,2.87
2018-12-03T18:44:47.203Z,2.47
2018-12-03T18:47:14.735Z,2.72
2018-12-03T18:49:42.282Z,2.35
2018-12-03T18:52:09.846Z,2.55
2018-12-03T18:54:37.389Z,3.10
2018-12-03T18:57:04.979Z,4.53
2018-12-03T18:59:32.566Z,4.37
2018-12-03T19:02:00.094Z,3.08
2018-12-03T19:04:27.744Z,3.60
2018-12-03T19:06:55.283Z,6.45
2018-12-03T19:09:22.927Z,14.85
2018-12-03T19:11:50.767Z,14.73
2018-12-03T19:14:18.307Z,26.93
2018-12-03T19:16:45.861Z,8.50
2018-12-03T19:19:13.429Z,6.20
2018-12-03T19:21:41.061Z,2.70
2018-12-03T19:24:08.627Z,3.05
2018-12-03T19:26:36.202Z,3.45
2018-12-03T19:29:03.807Z,3.40
2018-12-03T19:31:31.447Z,3.37
2018-12-03T19:33:59.124Z,2.10
2018-12-03T19:36:26.670Z,2.35
2018-12-03T19:38:54.199Z,2.20
2018-12-03T19:41:21.743Z,2.40
2018-12-03T19:43:49.316Z,2.00
2018-12-03T19:46:16.858Z,2.12
2018-12-03T19:48:44.431Z,2.50
2018-12-03T19:51:12.001Z,2.00
2018-12-03T19:53:39.530Z,3.10
2018-12-03T19:56:07.123Z,2.45
2018-12-03T19:58:34.692Z,3.02
2018-12-03T20:01:02.278Z,2.62
2018-12-03T20:03:29.842Z,3.58
2018-12-03T20:05:57.389Z,3.40
2018-12-03T20:08:24.917Z,2.05
2018-12-03T20:10:52.512Z,3.05
2018-12-03T20:13:20.289Z,2.70
2018-12-03T20:15:48.017Z,2.67
2018-12-03T20:18:15.553Z,3.10
2018-12-03T20:20:43.102Z,2.52
2018-12-03T20:23:10.630Z,7.40
2018-12-03T20:25:38.662Z,6.50
2018-12-03T20:28:07.513Z,4.87
2018-12-03T20:30:37.589Z,2.45
2018-12-03T20:33:05.118Z,2.30
2018-12-03T20:35:32.882Z,3.08
2018-12-03T20:38:00.424Z,15.25
2018-12-03T20:40:28.362Z,9.18
2018-12-03T20:42:55.970Z,4.95
2018-12-03T20:45:27.398Z,1.77
2018-12-03T20:47:55.000Z,2.08
2018-12-03T20:50:22.586Z,1.60
2018-12-03T20:52:50.150Z,1.50
2018-12-03T20:55:18.181Z,1.40
2018-12-03T20:57:45.717Z,1.30
2018-12-03T21:00:13.329Z,1.17
2018-12-03T21:02:40.877Z,1.30
2018-12-03T21:05:08.441Z,1.12
2018-12-03T21:07:36.070Z,1.00
2018-12-03T21:10:03.948Z,1.30
2018-12-03T21:12:31.499Z,0.80
2018-12-03T21:14:59.031Z,0.95
2018-12-03T21:17:26.574Z,1.75
2018-12-03T21:19:54.100Z,1.55
2018-12-03T21:22:21.650Z,1.15
2018-12-03T21:24:49.234Z,1.42
2018-12-03T21:27:17.421Z,1.45
2018-12-03T21:29:44.957Z,0.95
2018-12-03T21:32:12.504Z,0.80
2018-12-03T21:34:40.155Z,1.30
2018-12-03T21:37:07.707Z,0.80
2018-12-03T21:39:35.287Z,1.10
2018-12-03T21:42:02.955Z,0.90
2018-12-03T21:44:30.526Z,0.90
2018-12-03T21:46:58.099Z,1.15
2018-12-03T21:49:25.623Z,0.80
2018-12-03T21:51:53.250Z,1.17
2018-12-03T21:54:21.197Z,0.85
2018-12-03T21:56:48.803Z,1.00
2018-12-03T21:59:16.442Z,0.50
2018-12-03T22:01:44.042Z,0.90
2018-12-03T22:04:11.566Z,1.00
2018-12-03T22:06:39.260Z,1.00
2018-12-03T22:09:06.969Z,0.68
2018-12-03T22:11:34.515Z,0.70
2018-12-03T22:14:02.230Z,1.00
2018-12-03T22:16:29.855Z,1.05
2018-12-03T22:18:57.462Z,0.90
2018-12-03T22:21:25.041Z,1.00
2018-12-03T22:23:52.581Z,1.25
2018-12-03T22:26:20.182Z,1.07
2018-12-03T22:28:47.750Z,1.02
2018-12-03T22:31:15.327Z,1.20
2018-12-03T22:33:42.893Z,1.40
2018-12-03T22:36:10.443Z,1.10
2018-12-03T22:38:38.111Z,1.57
2018-12-03T22:41:05.676Z,1.45
2018-12-03T22:43:33.197Z,1.37
2018-12-03T22:46:00.757Z,1.30
2018-12-03T22:48:28.330Z,1.27
2018-12-03T22:50:55.857Z,1.50
2018-12-03T22:53:23.477Z,1.32
2018-12-03T22:55:51.055Z,1.20
2018-12-03T22:58:18.726Z,1.20
2018-12-03T23:00:48.480Z,1.35
2018-12-03T23:03:16.023Z,1.90
2018-12-03T23:05:43.690Z,1.50
2018-12-03T23:08:11.266Z,1.30
2018-12-03T23:10:38.794Z,1.30
2018-12-03T23:13:06.334Z,1.37
2018-12-03T23:15:33.858Z,1.47
2018-12-03T23:18:01.407Z,1.20
2018-12-03T23:20:28.930Z,1.32
2018-12-03T23:22:56.487Z,1.30
2018-12-03T23:25:24.017Z,1.42
2018-12-03T23:27:51.606Z,1.70
2018-12-03T23:30:19.176Z,1.42
2018-12-03T23:32:46.728Z,1.30
2018-12-03T23:35:14.254Z,1.40
2018-12-03T23:37:41.822Z,1.40
2018-12-03T23:40:09.497Z,1.25
2018-12-03T23:42:37.069Z,1.60
2018-12-03T23:45:04.974Z,1.77
2018-12-03T23:47:32.527Z,2.00
2018-12-03T23:50:00.168Z,1.80
2018-12-03T23:52:27.722Z,1.40
2018-12-03T23:54:55.289Z,1.82
2018-12-03T23:57:22.834Z,1.65
2018-12-03T23:59:50.357Z,1.70
